Time;durP1;ratioP1;P1;durP2;ratioP2;P2;SDS_P1;SDS_P2;PMS_P1;PMS_P2;Temp;Humidity;BMP_temperature;BMP_pressure;BME280_temperature;BME280_humidity;BME280_pressure;Samples;Min_cycle;Max_cycle;Signal;HPM_P1;HPM_P2
2023/11/21 00:00:12;;;;;;;8.60;7.77;;;;;8.50;96227.00;;;;5037360;28;20239;-67
2023/11/21 00:03:02;;;;;;;21.00;10.90;;;;;8.80;96234.00;;;;5030602;28;20231;-68
2023/11/21 00:05:52;;;;;;;14.50;10.43;;;;;8.70;96232.00;;;;5034318;28;20233;-67
2023/11/21 00:08:42;;;;;;;11.93;10.77;;;;;8.70;96233.00;;;;5046137;28;20209;-67
2023/11/21 00:11:31;;;;;;;10.90;9.50;;;;;8.60;96238.00;;;;5036620;28;20205;-67
2023/11/21 00:14:21;;;;;;;13.73;11.23;;;;;9.00;96228.00;;;;5049845;28;20214;-68
2023/11/21 00:17:10;;;;;;;13.97;12.80;;;;;9.20;96231.00;;;;5034709;28;20207;-68
2023/11/21 00:19:59;;;;;;;31.60;19.13;;;;;8.70;96233.00;;;;5044331;28;20231;-68
2023/11/21 00:22:49;;;;;;;13.40;10.90;;;;;8.50;96235.00;;;;5043600;28;20708;-68
2023/11/21 00:25:38;;;;;;;14.90;12.37;;;;;8.50;96219.00;;;;5040969;28;20224;-68
2023/11/21 00:28:28;;;;;;;13.93;11.13;;;;;8.70;96228.00;;;;5034569;28;20208;-68
2023/11/21 00:31:17;;;;;;;13.83;11.53;;;;;9.00;96238.00;;;;5030053;28;20235;-68
2023/11/21 00:34:06;;;;;;;21.70;16.23;;;;;9.10;96235.00;;;;5036431;28;20200;-68
2023/11/21 00:36:55;;;;;;;26.10;16.40;;;;;8.70;96236.00;;;;5037816;28;20204;-67
2023/11/21 00:39:45;;;;;;;17.83;16.13;;;;;9.00;96242.00;;;;5043718;28;20232;-69
2023/11/21 00:42:34;;;;;;;19.03;17.20;;;;;9.10;96245.00;;;;5040501;28;20211;-68
2023/11/21 00:45:23;;;;;;;17.00;14.97;;;;;9.00;96250.00;;;;5036992;28;20236;-67
2023/11/21 00:48:13;;;;;;;19.20;17.10;;;;;8.80;96250.00;;;;5042727;28;20219;-68
2023/11/21 00:51:02;;;;;;;29.07;21.50;;;;;8.70;96249.00;;;;5033277;28;20229;-68
2023/11/21 00:53:52;;;;;;;20.80;17.83;;;;;9.00;96252.00;;;;5032180;28;20217;-67
2023/11/21 00:56:42;;;;;;;20.47;18.43;;;;;8.80;96266.00;;;;5035244;28;20200;-68
2023/11/21 00:59:31;;;;;;;18.77;17.03;;;;;8.70;96264.00;;;;5031571;28;20225;-68
2023/11/21 01:02:20;;;;;;;19.10;17.43;;;;;8.50;96258.00;;;;5038409;28;20224;-68
2023/11/21 01:05:09;;;;;;;19.50;17.63;;;;;8.70;96258.00;;;;5028190;28;20682;-67
2023/11/21 01:07:58;;;;;;;25.17;20.33;;;;;8.90;96257.00;;;;5051200;28;20227;-67
2023/11/21 01:10:47;;;;;;;21.60;19.63;;;;;8.90;96251.00;;;;5033296;28;20233;-67
2023/11/21 01:13:38;;;;;;;17.90;16.23;;;;;8.90;96250.00;;;;5035798;28;20223;-67
2023/11/21 01:16:27;;;;;;;20.60;19.03;;;;;8.50;96241.00;;;;5037424;28;20226;-68
2023/11/21 01:19:16;;;;;;;23.33;21.37;;;;;8.70;96241.00;;;;5038159;28;20887;-68
2023/11/21 01:22:06;;;;;;;26.67;23.23;;;;;9.00;96231.00;;;;5033661;28;20213;-68
2023/11/21 01:24:55;;;;;;;29.33;24.90;;;;;8.90;96233.00;;;;5035602;28;20197;-68
2023/11/21 01:27:44;;;;;;;17.43;15.80;;;;;8.50;96219.00;;;;5037350;28;20212;-68
2023/11/21 01:30:35;;;;;;;21.37;19.47;;;;;8.70;96228.00;;;;5043137;28;20232;-68
2023/11/21 01:33:24;;;;;;;23.00;20.93;;;;;8.70;96218.00;;;;5050732;28;20213;-68
2023/11/21 01:36:14;;;;;;;28.43;25.50;;;;;8.40;96213.00;;;;5039366;28;20202;-68
2023/11/21 01:39:08;;;;;;;33.37;26.93;;;;;8.80;96233.00;;;;5033623;28;20209;-68
2023/11/21 01:41:58;;;;;;;27.77;24.90;;;;;8.60;96228.00;;;;5032631;28;20213;-66
2023/11/21 01:44:47;;;;;;;26.03;24.00;;;;;8.50;96212.00;;;;5042916;28;20205;-66
2023/11/21 01:47:38;;;;;;;26.67;24.57;;;;;8.90;96229.00;;;;5049133;28;20245;-66
2023/11/21 01:50:27;;;;;;;27.70;25.73;;;;;9.00;96219.00;;;;5038356;28;20716;-65
2023/11/21 01:53:16;;;;;;;26.23;24.03;;;;;8.90;96207.00;;;;5035020;28;20205;-66
2023/11/21 01:56:07;;;;;;;36.83;31.60;;;;;8.70;96209.00;;;;5035777;28;20219;-66
2023/11/21 01:58:56;;;;;;;30.03;27.03;;;;;8.80;96221.00;;;;5033873;28;20209;-66
2023/11/21 02:01:46;;;;;;;28.47;26.30;;;;;8.80;96216.00;;;;5044045;28;20219;-65
2023/11/21 02:04:37;;;;;;;31.10;28.50;;;;;9.10;96227.00;;;;5037189;28;20971;-65
2023/11/21 02:07:26;;;;;;;26.53;24.60;;;;;9.10;96219.00;;;;5042756;28;20229;-66
2023/11/21 02:10:16;;;;;;;24.43;22.60;;;;;9.00;96209.00;;;;5032834;28;20225;-65
2023/11/21 02:13:06;;;;;;;36.07;32.73;;;;;8.80;96213.00;;;;5039513;28;20209;-66
2023/11/21 02:15:56;;;;;;;38.30;34.63;;;;;8.60;96214.00;;;;5037238;28;20205;-64
2023/11/21 02:18:47;;;;;;;27.50;25.17;;;;;8.40;96194.00;;;;5043007;28;20217;-66
2023/11/21 02:21:40;;;;;;;27.77;25.40;;;;;8.60;96205.00;;;;5041382;28;20204;-65
2023/11/21 02:24:30;;;;;;;35.90;32.87;;;;;8.90;96200.00;;;;5038235;28;20238;-66
2023/11/21 02:27:21;;;;;;;38.57;35.23;;;;;9.20;96201.00;;;;5037829;28;20220;-65
2023/11/21 02:30:13;;;;;;;40.93;37.47;;;;;9.20;96203.00;;;;5038178;28;20244;-65
2023/11/21 02:33:02;;;;;;;41.23;37.17;;;;;9.30;96198.00;;;;5033847;28;20209;-65
2023/11/21 02:35:53;;;;;;;45.57;41.40;;;;;9.40;96202.00;;;;5036945;28;20209;-66
2023/11/21 02:38:42;;;;;;;38.50;35.47;;;;;9.10;96190.00;;;;5038302;28;20602;-66
2023/11/21 02:41:32;;;;;;;43.60;40.00;;;;;9.20;96196.00;;;;5039399;28;20209;-65
2023/11/21 02:44:21;;;;;;;43.07;39.27;;;;;9.40;96197.00;;;;5045582;28;20200;-66
2023/11/21 02:47:10;;;;;;;48.30;43.97;;;;;9.30;96187.00;;;;5039342;28;20866;-65
2023/11/21 02:49:59;;;;;;;53.73;47.60;;;;;9.40;96204.00;;;;5035573;28;20216;-66
2023/11/21 02:52:49;;;;;;;48.03;43.73;;;;;9.40;96197.00;;;;5037792;28;20212;-65
2023/11/21 02:55:38;;;;;;;51.80;46.90;;;;;9.40;96209.00;;;;5042107;28;20204;-66
2023/11/21 02:58:28;;;;;;;55.50;50.30;;;;;9.40;96208.00;;;;5033196;28;20201;-66
2023/11/21 03:01:17;;;;;;;54.67;49.47;;;;;9.40;96216.00;;;;5035234;28;20232;-66
2023/11/21 03:04:07;;;;;;;52.60;47.50;;;;;9.40;96220.00;;;;5032790;28;20263;-66
2023/11/21 03:06:56;;;;;;;61.30;55.17;;;;;9.50;96220.00;;;;5043442;28;20246;-65
2023/11/21 03:09:45;;;;;;;56.97;51.37;;;;;9.40;96219.00;;;;5046740;28;20228;-65
2023/11/21 03:12:34;;;;;;;57.77;51.93;;;;;9.10;96208.00;;;;5036222;28;20201;-66
2023/11/21 03:15:24;;;;;;;63.80;57.17;;;;;8.70;96210.00;;;;5039817;28;20596;-66
2023/11/21 03:18:13;;;;;;;65.03;57.33;;;;;8.70;96216.00;;;;5033485;28;20267;-66
2023/11/21 03:21:02;;;;;;;62.60;54.53;;;;;8.80;96218.00;;;;5037686;28;20601;-66
2023/11/21 03:23:51;;;;;;;63.93;57.10;;;;;9.00;96211.00;;;;5042007;28;20319;-65
2023/11/21 03:26:40;;;;;;;63.60;56.70;;;;;8.60;96216.00;;;;5044983;28;20225;-65
2023/11/21 03:29:29;;;;;;;61.87;55.23;;;;;8.40;96214.00;;;;5032126;28;20221;-66
2023/11/21 03:32:20;;;;;;;65.03;57.00;;;;;8.70;96231.00;;;;5034806;28;20228;-66
2023/11/21 03:35:09;;;;;;;69.97;58.37;;;;;8.90;96235.00;;;;5043351;28;20203;-65
2023/11/21 03:37:59;;;;;;;72.00;59.03;;;;;9.10;96230.00;;;;5043956;28;20616;-66
2023/11/21 03:40:48;;;;;;;74.17;60.73;;;;;9.20;96237.00;;;;5032274;28;20236;-66
2023/11/21 03:43:37;;;;;;;78.87;63.13;;;;;9.30;96233.00;;;;5036409;28;20204;-66
2023/11/21 03:46:26;;;;;;;79.13;62.60;;;;;9.10;96221.00;;;;5034898;28;20198;-65
2023/11/21 03:49:16;;;;;;;81.37;62.33;;;;;9.20;96235.00;;;;5033214;28;20201;-66
2023/11/21 03:52:07;;;;;;;90.60;66.77;;;;;9.30;96239.00;;;;5048173;28;20219;-65
2023/11/21 03:54:56;;;;;;;114.10;77.40;;;;;9.00;96232.00;;;;5037312;28;20201;-65
2023/11/21 03:57:45;;;;;;;106.40;70.33;;;;;9.10;96235.00;;;;5036911;28;20205;-66
2023/11/21 04:00:34;;;;;;;110.57;70.27;;;;;9.20;96231.00;;;;5034432;28;20224;-66
2023/11/21 04:03:23;;;;;;;111.40;72.40;;;;;8.90;96237.00;;;;5029745;28;20205;-66
2023/11/21 04:06:14;;;;;;;118.80;74.40;;;;;8.60;96240.00;;;;5039021;28;20615;-66
2023/11/21 04:09:04;;;;;;;115.17;73.13;;;;;8.30;96234.00;;;;5038029;28;20202;-66
2023/11/21 04:11:53;;;;;;;122.87;74.70;;;;;8.70;96221.00;;;;5041573;28;20212;-66
2023/11/21 04:14:42;;;;;;;132.97;78.50;;;;;9.00;96229.00;;;;5035269;28;20674;-66
2023/11/21 04:17:31;;;;;;;140.37;76.27;;;;;9.00;96232.00;;;;5042931;28;20204;-65
2023/11/21 04:20:20;;;;;;;162.90;82.30;;;;;9.10;96230.00;;;;5043744;28;20216;-65
2023/11/21 04:23:13;;;;;;;184.03;89.40;;;;;9.10;96233.00;;;;5038451;28;20212;-66
2023/11/21 04:26:02;;;;;;;210.73;95.50;;;;;9.00;96232.00;;;;5030655;28;20234;-66
2023/11/21 04:28:51;;;;;;;322.60;98.47;;;;;8.90;96223.00;;;;5033295;28;20608;-66
2023/11/21 04:31:41;;;;;;;193.97;86.57;;;;;9.10;96234.00;;;;5042235;28;20205;-66
2023/11/21 04:34:30;;;;;;;303.07;88.87;;;;;9.10;96221.00;;;;5042218;28;20693;-65
2023/11/21 04:37:19;;;;;;;87.57;65.00;;;;;9.10;96219.00;;;;5033932;28;20201;-66
2023/11/21 04:40:11;;;;;;;110.43;73.07;;;;;8.90;96214.00;;;;5045379;28;20239;-65
2023/11/21 04:43:01;;;;;;;122.50;77.90;;;;;8.90;96219.00;;;;5033869;28;20271;-64
2023/11/21 04:45:50;;;;;;;139.80;76.53;;;;;8.70;96232.00;;;;5041284;28;20197;-65
2023/11/21 04:48:40;;;;;;;109.10;71.63;;;;;8.70;96221.00;;;;5036063;28;20233;-64
2023/11/21 04:51:29;;;;;;;110.53;71.90;;;;;8.60;96230.00;;;;5035461;28;20597;-65
2023/11/21 04:54:18;;;;;;;107.67;70.33;;;;;8.90;96233.00;;;;5044959;28;20197;-65
2023/11/21 04:57:09;;;;;;;108.03;69.90;;;;;9.10;96233.00;;;;5028611;28;20206;-64
2023/11/21 04:59:58;;;;;;;134.90;81.63;;;;;9.00;96236.00;;;;5048176;28;20251;-64
2023/11/21 05:02:47;;;;;;;120.90;75.30;;;;;9.10;96237.00;;;;5042648;28;20208;-65
2023/11/21 05:05:37;;;;;;;120.67;73.43;;;;;9.20;96238.00;;;;5044154;28;20205;-64
2023/11/21 05:08:27;;;;;;;125.90;75.70;;;;;9.20;96239.00;;;;5036379;28;20220;-65
2023/11/21 05:11:25;;;;;;;137.27;76.00;;;;;9.20;96247.00;;;;5041997;28;20216;-64
2023/11/21 05:14:15;;;;;;;153.30;81.13;;;;;9.20;96243.00;;;;5040694;28;20279;-65
2023/11/21 05:17:05;;;;;;;172.27;87.50;;;;;9.30;96227.00;;;;5038466;28;20204;-65
2023/11/21 05:19:54;;;;;;;188.27;90.40;;;;;8.90;96246.00;;;;5038860;28;20232;-65
2023/11/21 05:22:43;;;;;;;191.83;87.07;;;;;8.80;96243.00;;;;5036085;28;20288;-65
2023/11/21 05:25:32;;;;;;;191.23;86.63;;;;;8.80;96246.00;;;;5032695;28;20213;-64
2023/11/21 05:28:21;;;;;;;182.27;86.20;;;;;9.00;96252.00;;;;5042289;28;20220;-64
2023/11/21 05:31:12;;;;;;;283.20;98.50;;;;;9.10;96247.00;;;;5047738;28;20735;-65
2023/11/21 05:34:02;;;;;;;270.53;98.03;;;;;8.90;96248.00;;;;5041968;28;20205;-65
2023/11/21 05:36:51;;;;;;;132.27;78.33;;;;;8.90;96255.00;;;;5040079;28;20211;-65
2023/11/21 05:39:40;;;;;;;191.73;86.87;;;;;8.90;96251.00;;;;5038686;28;20236;-66
2023/11/21 05:42:30;;;;;;;148.87;80.57;;;;;9.00;96249.00;;;;5037534;28;20207;-67
2023/11/21 05:45:19;;;;;;;94.17;68.17;;;;;9.10;96250.00;;;;5044814;28;20211;-67
2023/11/21 05:48:09;;;;;;;69.43;57.23;;;;;9.10;96255.00;;;;5038578;28;20228;-66
2023/11/21 05:50:58;;;;;;;50.40;45.33;;;;;9.00;96270.00;;;;5052168;28;20222;-66
2023/11/21 05:53:47;;;;;;;50.50;45.30;;;;;8.90;96262.00;;;;5039448;28;20204;-65
2023/11/21 05:56:36;;;;;;;45.80;41.83;;;;;8.90;96268.00;;;;5034278;28;20212;-66
2023/11/21 05:59:25;;;;;;;39.87;36.77;;;;;8.70;96264.00;;;;5042373;28;20632;-66
2023/11/21 06:02:14;;;;;;;34.23;31.53;;;;;8.50;96273.00;;;;5043818;28;20728;-66
2023/11/21 06:05:06;;;;;;;39.40;35.23;;;;;8.30;96281.00;;;;5039183;28;20212;-66
2023/11/21 06:07:56;;;;;;;36.83;33.60;;;;;8.50;96271.00;;;;5036471;28;20221;-66
2023/11/21 06:10:45;;;;;;;35.83;32.67;;;;;8.70;96272.00;;;;5041430;28;20271;-67
2023/11/21 06:13:34;;;;;;;40.93;37.30;;;;;8.80;96275.00;;;;5045006;28;20201;-65
2023/11/21 06:16:23;;;;;;;47.33;42.87;;;;;8.80;96269.00;;;;5040152;28;20197;-66
2023/11/21 06:19:12;;;;;;;54.20;47.97;;;;;9.00;96274.00;;;;5035090;28;20196;-66
2023/11/21 06:22:03;;;;;;;61.60;53.17;;;;;8.80;96282.00;;;;5034679;28;20220;-67
2023/11/21 06:24:52;;;;;;;66.27;54.60;;;;;8.90;96284.00;;;;5036402;28;20216;-66
2023/11/21 06:27:42;;;;;;;56.87;50.97;;;;;8.80;96283.00;;;;5032595;28;20208;-67
2023/11/21 06:30:31;;;;;;;56.77;50.80;;;;;8.50;96281.00;;;;5040197;28;20803;-67
2023/11/21 06:33:21;;;;;;;60.73;54.30;;;;;8.80;96281.00;;;;5034981;28;20212;-66
2023/11/21 06:36:12;;;;;;;72.67;57.00;;;;;8.70;96285.00;;;;5035802;28;20225;-66
2023/11/21 06:39:03;;;;;;;74.73;59.83;;;;;8.60;96290.00;;;;5038128;28;20592;-67
2023/11/21 06:41:56;;;;;;;56.80;51.00;;;;;8.60;96290.00;;;;5038819;28;20224;-66
2023/11/21 06:44:45;;;;;;;59.77;53.33;;;;;8.50;96286.00;;;;5033033;28;20213;-67
2023/11/21 06:47:34;;;;;;;58.93;52.57;;;;;8.70;96291.00;;;;5038918;28;20201;-67
2023/11/21 06:50:23;;;;;;;63.73;55.50;;;;;8.90;96293.00;;;;5039956;28;20216;-67
2023/11/21 06:53:13;;;;;;;58.93;52.63;;;;;9.10;96301.00;;;;5043215;28;20208;-66
2023/11/21 06:56:03;;;;;;;77.37;60.83;;;;;9.10;96303.00;;;;5039718;28;20205;-66
2023/11/21 06:58:53;;;;;;;63.60;54.23;;;;;8.90;96307.00;;;;5034312;28;20206;-65
2023/11/21 07:01:43;;;;;;;65.27;57.77;;;;;8.70;96302.00;;;;5042912;28;20291;-65
2023/11/21 07:04:32;;;;;;;70.30;57.83;;;;;8.80;96299.00;;;;5044694;28;20247;-65
2023/11/21 07:07:21;;;;;;;72.03;59.43;;;;;8.90;96312.00;;;;5047570;28;20204;-65
2023/11/21 07:10:10;;;;;;;71.20;58.50;;;;;8.90;96318.00;;;;5041377;28;20235;-67
2023/11/21 07:13:01;;;;;;;74.40;59.73;;;;;9.00;96322.00;;;;5038084;28;20196;-66
2023/11/21 07:15:50;;;;;;;79.97;63.03;;;;;9.10;96327.00;;;;5039171;28;20197;-66
2023/11/21 07:18:40;;;;;;;82.93;63.60;;;;;9.20;96316.00;;;;5042668;28;20204;-66
2023/11/21 07:21:29;;;;;;;72.60;58.80;;;;;9.30;96319.00;;;;5029906;28;20194;-66
2023/11/21 07:24:18;;;;;;;71.03;59.00;;;;;9.30;96315.00;;;;5039372;28;20201;-67
2023/11/21 07:27:07;;;;;;;88.43;66.00;;;;;9.30;96308.00;;;;5035880;28;20201;-65
2023/11/21 07:29:57;;;;;;;93.77;67.80;;;;;9.10;96320.00;;;;5038405;28;20225;-67
2023/11/21 07:32:47;;;;;;;80.73;62.53;;;;;9.00;96315.00;;;;5040606;28;20196;-67
2023/11/21 07:35:36;;;;;;;95.80;71.00;;;;;9.00;96308.00;;;;5042718;28;20200;-66
2023/11/21 07:38:25;;;;;;;95.63;70.07;;;;;9.10;96317.00;;;;5034537;28;20211;-66
2023/11/21 07:41:15;;;;;;;92.17;67.60;;;;;9.00;96314.00;;;;5033755;28;20247;-69
2023/11/21 07:44:10;;;;;;;102.77;70.50;;;;;9.10;96322.00;;;;5040021;28;20615;-69
2023/11/21 07:47:00;;;;;;;90.60;67.77;;;;;8.90;96314.00;;;;5037597;28;20204;-69
2023/11/21 07:49:49;;;;;;;96.80;70.10;;;;;8.70;96307.00;;;;5045145;28;20230;-70
2023/11/21 07:52:39;;;;;;;88.63;66.37;;;;;8.50;96325.00;;;;5034970;28;20213;-69
2023/11/21 07:55:32;;;;;;;71.80;59.03;;;;;8.50;96319.00;;;;5041197;28;20196;-69
2023/11/21 07:58:21;;;;;;;71.40;58.57;;;;;9.10;96336.00;;;;5032442;28;20212;-69
2023/11/21 08:01:10;;;;;;;96.33;70.77;;;;;9.20;96329.00;;;;5035666;28;20609;-70
2023/11/21 08:04:03;;;;;;;96.47;70.03;;;;;9.50;96330.00;;;;5034969;28;20232;-69
2023/11/21 08:06:52;;;;;;;98.10;68.77;;;;;9.70;96330.00;;;;5035623;28;20250;-69
2023/11/21 08:09:41;;;;;;;101.70;70.23;;;;;9.90;96335.00;;;;5032494;28;20623;-69
2023/11/21 08:12:30;;;;;;;97.37;68.53;;;;;9.90;96332.00;;;;5032663;28;20578;-69
2023/11/21 08:15:19;;;;;;;116.83;73.47;;;;;10.00;96315.00;;;;5031135;28;20276;-69
2023/11/21 08:18:08;;;;;;;136.80;81.67;;;;;10.10;96320.00;;;;5043210;28;20686;-69
2023/11/21 08:20:59;;;;;;;119.77;76.37;;;;;10.30;96317.00;;;;5047095;28;20229;-69
2023/11/21 08:23:53;;;;;;;127.03;78.43;;;;;10.40;96317.00;;;;5034852;28;20213;-71
2023/11/21 08:26:43;;;;;;;132.40;81.43;;;;;10.50;96326.00;;;;5033441;28;20204;-69
2023/11/21 08:29:32;;;;;;;134.50;79.97;;;;;10.50;96324.00;;;;5031851;28;20225;-69
2023/11/21 08:32:21;;;;;;;138.07;86.20;;;;;10.40;96320.00;;;;5038335;28;20568;-68
2023/11/21 08:35:11;;;;;;;155.23;87.87;;;;;10.40;96309.00;;;;5041741;28;20204;-69
2023/11/21 08:38:02;;;;;;;141.63;91.87;;;;;10.40;96307.00;;;;5035713;28;20201;-69
2023/11/21 08:40:51;;;;;;;129.07;83.30;;;;;10.50;96300.00;;;;5032424;28;20225;-69
2023/11/21 08:43:40;;;;;;;152.33;87.13;;;;;10.60;96305.00;;;;5031905;28;20236;-68
2023/11/21 08:46:29;;;;;;;160.93;88.67;;;;;10.50;96300.00;;;;5035730;28;20201;-69
2023/11/21 08:49:18;;;;;;;167.17;88.03;;;;;10.60;96310.00;;;;5033180;28;20223;-68
2023/11/21 08:52:07;;;;;;;175.60;93.60;;;;;10.60;96302.00;;;;5038508;28;20220;-68
2023/11/21 08:54:59;;;;;;;175.43;91.10;;;;;10.60;96300.00;;;;5039731;28;20198;-69
2023/11/21 08:57:48;;;;;;;165.43;90.97;;;;;10.40;96304.00;;;;5034397;28;20912;-68
2023/11/21 09:00:38;;;;;;;168.27;91.93;;;;;10.50;96304.00;;;;5036191;28;20216;-69
2023/11/21 09:03:28;;;;;;;179.80;90.60;;;;;10.10;96305.00;;;;5034555;28;20207;-69
2023/11/21 09:06:17;;;;;;;187.17;94.10;;;;;10.30;96313.00;;;;5036181;28;20242;-69
2023/11/21 09:09:08;;;;;;;208.70;97.90;;;;;10.30;96308.00;;;;5040642;28;20196;-68
2023/11/21 09:12:00;;;;;;;206.20;98.13;;;;;10.30;96310.00;;;;5038932;28;20204;-69
2023/11/21 09:14:49;;;;;;;220.80;97.17;;;;;10.30;96303.00;;;;5036290;28;20204;-69
2023/11/21 09:17:40;;;;;;;268.23;99.07;;;;;10.40;96304.00;;;;5029978;28;20228;-70
2023/11/21 09:20:29;;;;;;;332.50;94.93;;;;;10.50;96306.00;;;;5050120;28;20208;-69
2023/11/21 09:23:18;;;;;;;340.27;95.53;;;;;10.70;96310.00;;;;5038473;28;20204;-69
2023/11/21 09:26:07;;;;;;;242.83;108.17;;;;;10.90;96309.00;;;;5036506;28;20209;-68
2023/11/21 09:28:57;;;;;;;190.80;93.27;;;;;10.90;96312.00;;;;5036325;28;20208;-68
2023/11/21 09:31:46;;;;;;;218.37;97.70;;;;;10.90;96314.00;;;;5038141;28;20201;-69
2023/11/21 09:34:38;;;;;;;237.60;103.13;;;;;10.80;96303.00;;;;5047644;28;20208;-69
2023/11/21 09:37:27;;;;;;;241.63;101.77;;;;;10.70;96291.00;;;;5039279;28;20713;-69
2023/11/21 09:40:17;;;;;;;245.63;102.37;;;;;11.00;96308.00;;;;5031429;28;22636;-68
2023/11/21 09:43:15;;;;;;;271.97;107.80;;;;;10.90;96295.00;;;;5038624;28;20208;-68
2023/11/21 09:46:10;;;;;;;290.20;107.80;;;;;11.10;96285.00;;;;5046244;28;20205;-68
2023/11/21 09:49:02;;;;;;;301.30;103.33;;;;;11.00;96284.00;;;;5041559;28;20201;-69
2023/11/21 09:51:56;;;;;;;288.43;99.63;;;;;11.00;96291.00;;;;5040647;28;20201;-69
2023/11/21 09:54:45;;;;;;;299.83;103.40;;;;;11.10;96288.00;;;;5034028;28;20593;-69
2023/11/21 09:57:34;;;;;;;328.57;102.23;;;;;11.20;96282.00;;;;5038070;28;20209;-69
2023/11/21 10:00:24;;;;;;;339.87;100.70;;;;;11.20;96284.00;;;;5041847;28;20327;-69
2023/11/21 10:03:15;;;;;;;351.27;100.80;;;;;11.20;96283.00;;;;5044781;28;20215;-69
2023/11/21 10:06:06;;;;;;;350.03;109.93;;;;;11.30;96280.00;;;;5034954;28;20200;-68
2023/11/21 10:08:56;;;;;;;273.23;95.90;;;;;11.40;96273.00;;;;5039026;28;20216;-68
2023/11/21 10:11:46;;;;;;;322.80;92.60;;;;;11.50;96278.00;;;;5034623;28;20217;-69
2023/11/21 10:14:36;;;;;;;322.50;89.77;;;;;11.60;96286.00;;;;5043187;28;20213;-68
2023/11/21 10:17:26;;;;;;;318.80;86.33;;;;;11.60;96281.00;;;;5027597;28;20208;-69
2023/11/21 10:20:16;;;;;;;326.60;91.57;;;;;11.60;96277.00;;;;5044531;28;20443;-68
2023/11/21 10:23:07;;;;;;;69.53;62.83;;;;;11.60;96279.00;;;;5038690;28;20193;-68
2023/11/21 10:25:56;;;;;;;62.53;56.90;;;;;11.60;96283.00;;;;5035387;28;20201;-70
2023/11/21 10:28:57;;;;;;;51.20;47.23;;;;;11.60;96285.00;;;;5046690;28;20258;-70
2023/11/21 10:31:46;;;;;;;43.53;39.97;;;;;11.70;96290.00;;;;5040314;28;20217;-68
2023/11/21 10:34:35;;;;;;;42.57;39.30;;;;;11.70;96276.00;;;;5048717;28;20661;-68
2023/11/21 10:37:26;;;;;;;43.67;40.43;;;;;11.80;96273.00;;;;5042739;28;20608;-68
2023/11/21 10:40:15;;;;;;;32.53;29.30;;;;;11.90;96274.00;;;;5038622;28;20236;-68
2023/11/21 10:43:09;;;;;;;42.20;38.30;;;;;12.00;96284.00;;;;5039997;28;20224;-70
2023/11/21 10:46:00;;;;;;;41.07;37.93;;;;;12.00;96278.00;;;;5044387;28;20205;-69
2023/11/21 10:48:54;;;;;;;49.30;45.50;;;;;12.10;96283.00;;;;5037679;28;20197;-68
2023/11/21 10:51:45;;;;;;;43.33;40.40;;;;;12.10;96276.00;;;;5040012;28;20229;-69
2023/11/21 10:54:35;;;;;;;51.53;47.67;;;;;12.10;96281.00;;;;5033565;28;20201;-68
2023/11/21 10:57:25;;;;;;;51.27;47.17;;;;;12.20;96290.00;;;;5036302;28;20206;-70
2023/11/21 11:00:16;;;;;;;50.30;46.07;;;;;12.10;96292.00;;;;5055479;28;20228;-69
2023/11/21 11:03:05;;;;;;;52.20;47.80;;;;;12.20;96293.00;;;;5039890;28;20740;-69
2023/11/21 11:05:54;;;;;;;41.87;39.10;;;;;12.10;96280.00;;;;5036367;28;20292;-68
2023/11/21 11:08:43;;;;;;;47.80;44.23;;;;;12.20;96282.00;;;;5046402;28;20202;-69
2023/11/21 11:11:36;;;;;;;52.10;48.13;;;;;12.30;96285.00;;;;5038000;28;20236;-69
2023/11/21 11:14:25;;;;;;;57.83;53.37;;;;;12.30;96286.00;;;;5041262;28;20205;-69
2023/11/21 11:17:16;;;;;;;52.27;47.70;;;;;12.30;96273.00;;;;5036400;28;20219;-69
2023/11/21 11:20:06;;;;;;;51.27;46.30;;;;;12.40;96276.00;;;;5035639;28;20750;-69
2023/11/21 11:23:12;;;;;;;47.67;44.33;;;;;12.40;96281.00;;;;5037459;28;20227;-69
2023/11/21 11:26:11;;;;;;;42.10;38.13;;;;;12.40;96277.00;;;;5038208;28;20213;-69
2023/11/21 11:29:08;;;;;;;45.63;42.40;;;;;12.40;96276.00;;;;5046506;28;20212;-68
2023/11/21 11:32:06;;;;;;;52.70;48.73;;;;;12.20;96277.00;;;;5041012;28;20222;-68
2023/11/21 11:35:00;;;;;;;39.70;36.63;;;;;11.80;96269.00;;;;5042794;28;20589;-69
2023/11/21 11:37:49;;;;;;;41.63;38.70;;;;;11.10;96263.00;;;;5041402;28;20205;-69
2023/11/21 11:40:42;;;;;;;47.47;44.03;;;;;11.40;96261.00;;;;5034388;28;20687;-68
2023/11/21 11:43:32;;;;;;;35.10;32.53;;;;;11.70;96273.00;;;;5033638;28;20201;-68
2023/11/21 11:46:27;;;;;;;33.77;31.57;;;;;11.90;96272.00;;;;5033631;28;20223;-69
2023/11/21 11:49:25;;;;;;;46.97;42.40;;;;;12.00;96269.00;;;;5041274;28;20207;-69
2023/11/21 11:52:38;;;;;;;69.50;62.73;;;;;12.20;96273.00;;;;5039757;28;20236;-68
2023/11/21 11:55:30;;;;;;;65.77;60.13;;;;;12.10;96264.00;;;;5046533;28;20203;-67
2023/11/21 11:58:19;;;;;;;72.03;65.40;;;;;11.50;96260.00;;;;5035329;28;20671;-70
2023/11/21 12:01:08;;;;;;;78.90;70.97;;;;;11.50;96259.00;;;;5033604;28;20215;-69
2023/11/21 12:04:35;;;;;;;71.50;65.13;;;;;11.70;96257.00;;;;5044145;28;20210;-70
2023/11/21 12:07:24;;;;;;;69.30;62.93;;;;;11.70;96264.00;;;;5039041;28;20211;-69
2023/11/21 12:10:17;;;;;;;67.47;61.33;;;;;12.00;96260.00;;;;5035780;28;20705;-70
2023/11/21 12:13:08;;;;;;;58.20;53.20;;;;;12.30;96259.00;;;;5032444;28;20201;-68
2023/11/21 12:15:57;;;;;;;76.67;68.57;;;;;12.40;96253.00;;;;5029598;28;20213;-69
2023/11/21 12:18:46;;;;;;;79.67;71.87;;;;;12.50;96250.00;;;;5039926;28;20193;-69
2023/11/21 12:21:38;;;;;;;82.10;73.53;;;;;12.60;96247.00;;;;5037132;28;20205;-70
2023/11/21 12:24:28;;;;;;;85.20;76.17;;;;;12.70;96241.00;;;;5038245;28;20205;-69
2023/11/21 12:27:18;;;;;;;90.50;80.57;;;;;12.80;96242.00;;;;5039300;28;20212;-68
2023/11/21 12:30:13;;;;;;;104.53;89.10;;;;;12.80;96246.00;;;;5033736;28;20713;-68
2023/11/21 12:33:03;;;;;;;105.50;91.40;;;;;12.90;96241.00;;;;5033805;28;20205;-70
2023/11/21 12:35:53;;;;;;;109.10;92.17;;;;;13.10;96247.00;;;;5039007;28;20197;-69
2023/11/21 12:38:44;;;;;;;115.20;92.70;;;;;13.00;96261.00;;;;5040217;28;20692;-68
2023/11/21 12:41:33;;;;;;;114.90;96.07;;;;;12.90;96254.00;;;;5036316;28;20205;-68
2023/11/21 12:44:23;;;;;;;122.40;97.43;;;;;12.80;96237.00;;;;5041236;28;20958;-68
2023/11/21 12:47:14;;;;;;;139.20;103.77;;;;;12.90;96244.00;;;;5043772;28;20211;-69
2023/11/21 12:50:05;;;;;;;164.53;116.93;;;;;13.20;96241.00;;;;5036636;28;20674;-68
2023/11/21 12:52:55;;;;;;;143.53;107.17;;;;;13.20;96234.00;;;;5035386;28;20221;-68
2023/11/21 12:55:51;;;;;;;158.03;106.80;;;;;13.40;96223.00;;;;5038804;28;20209;-69
2023/11/21 12:58:41;;;;;;;163.17;108.90;;;;;13.50;96231.00;;;;5034649;28;20197;-68
2023/11/21 13:01:31;;;;;;;179.03;111.57;;;;;13.40;96222.00;;;;5041384;28;20216;-69
2023/11/21 13:04:20;;;;;;;186.13;116.73;;;;;13.30;96217.00;;;;5040384;28;20634;-68
2023/11/21 13:07:14;;;;;;;209.37;126.53;;;;;13.50;96222.00;;;;5034483;28;20589;-69
2023/11/21 13:10:05;;;;;;;224.47;133.17;;;;;13.50;96214.00;;;;5038832;28;20225;-68
2023/11/21 13:12:58;;;;;;;238.50;129.47;;;;;13.60;96219.00;;;;5035260;28;20229;-69
2023/11/21 13:15:50;;;;;;;234.47;125.73;;;;;13.40;96219.00;;;;5033029;28;20577;-69
2023/11/21 13:18:41;;;;;;;173.97;117.60;;;;;13.60;96209.00;;;;5035086;28;20689;-68
2023/11/21 13:21:31;;;;;;;345.53;107.27;;;;;13.70;96201.00;;;;5032941;28;20203;-69
2023/11/21 13:24:20;;;;;;;289.40;128.43;;;;;13.70;96201.00;;;;5036523;28;20220;-68
2023/11/21 13:27:10;;;;;;;236.07;126.97;;;;;13.70;96189.00;;;;5040355;28;20203;-68
2023/11/21 13:30:01;;;;;;;254.27;129.90;;;;;13.70;96196.00;;;;5039965;28;20231;-68
2023/11/21 13:32:51;;;;;;;134.30;112.20;;;;;13.30;96196.00;;;;5044370;28;20598;-68
2023/11/21 13:35:41;;;;;;;120.57;107.33;;;;;13.50;96194.00;;;;5038768;28;20255;-68
2023/11/21 13:38:33;;;;;;;114.47;102.33;;;;;13.70;96202.00;;;;5041444;28;20217;-68
2023/11/21 13:41:27;;;;;;;121.17;108.27;;;;;13.80;96204.00;;;;5057063;23;20282;-82
2023/11/21 13:44:26;;;;;;;126.87;112.37;;;;;13.80;96215.00;;;;5050266;28;20227;-82
2023/11/21 13:47:16;;;;;;;135.97;112.47;;;;;13.80;96217.00;;;;5023774;28;20260;-82
2023/11/21 13:50:13;;;;;;;127.70;109.03;;;;;13.70;96221.00;;;;5023322;28;20224;-82
2023/11/21 13:53:10;;;;;;;133.00;113.17;;;;;13.70;96213.00;;;;5026550;28;20240;-82